sensor_id;sensor_type;location;lat;lon;timestamp;P1;durP1;ratioP1;P2;durP2;ratioP2
52540;SDS011;56003;48.556;9.370;2022-12-18T00:01:36;0.40;;;0.20;;
52540;SDS011;56003;48.556;9.370;2022-12-18T00:04:06;1.60;;;1.50;;
52540;SDS011;56003;48.556;9.370;2022-12-18T00:06:33;2.30;;;0.90;;
52540;SDS011;56003;48.556;9.370;2022-12-18T00:09:00;0.63;;;0.57;;
52540;SDS011;56003;48.556;9.370;2022-12-18T00:11:27;0.40;;;0.20;;
52540;SDS011;56003;48.556;9.370;2022-12-18T00:13:55;0.40;;;0.20;;
52540;SDS011;56003;48.556;9.370;2022-12-18T00:16:22;0.77;;;0.67;;
52540;SDS011;56003;48.556;9.370;2022-12-18T00:18:49;1.90;;;1.80;;
52540;SDS011;56003;48.556;9.370;2022-12-18T00:21:16;0.97;;;0.97;;
52540;SDS011;56003;48.556;9.370;2022-12-18T00:23:47;0.40;;;0.20;;
52540;SDS011;56003;48.556;9.370;2022-12-18T00:26:16;1.80;;;1.70;;
52540;SDS011;56003;48.556;9.370;2022-12-18T00:28:44;0.40;;;0.30;;
52540;SDS011;56003;48.556;9.370;2022-12-18T00:31:11;0.40;;;0.20;;
52540;SDS011;56003;48.556;9.370;2022-12-18T00:33:39;0.40;;;0.20;;
52540;SDS011;56003;48.556;9.370;2022-12-18T00:36:05;0.40;;;0.20;;
52540;SDS011;56003;48.556;9.370;2022-12-18T00:38:32;0.40;;;0.30;;
52540;SDS011;56003;48.556;9.370;2022-12-18T00:40:59;0.40;;;0.20;;
52540;SDS011;56003;48.556;9.370;2022-12-18T00:43:24;0.40;;;0.20;;
52540;SDS011;56003;48.556;9.370;2022-12-18T00:45:50;0.40;;;0.20;;
52540;SDS011;56003;48.556;9.370;2022-12-18T00:48:18;0.40;;;0.30;;
52540;SDS011;56003;48.556;9.370;2022-12-18T00:50:46;0.40;;;0.20;;
52540;SDS011;56003;48.556;9.370;2022-12-18T00:53:13;0.40;;;0.40;;
52540;SDS011;56003;48.556;9.370;2022-12-18T00:55:38;0.40;;;0.20;;
52540;SDS011;56003;48.556;9.370;2022-12-18T00:58:07;0.40;;;0.20;;
52540;SDS011;56003;48.556;9.370;2022-12-18T01:00:33;0.40;;;0.20;;
52540;SDS011;56003;48.556;9.370;2022-12-18T01:02:59;0.40;;;0.20;;
52540;SDS011;56003;48.556;9.370;2022-12-18T01:05:25;0.40;;;0.20;;
52540;SDS011;56003;48.556;9.370;2022-12-18T01:07:51;0.40;;;0.20;;
52540;SDS011;56003;48.556;9.370;2022-12-18T01:10:16;0.40;;;0.20;;
52540;SDS011;56003;48.556;9.370;2022-12-18T01:12:42;0.40;;;0.20;;
52540;SDS011;56003;48.556;9.370;2022-12-18T01:15:09;0.40;;;0.20;;
52540;SDS011;56003;48.556;9.370;2022-12-18T01:17:35;0.40;;;0.20;;
52540;SDS011;56003;48.556;9.370;2022-12-18T01:20:00;1.90;;;1.80;;
52540;SDS011;56003;48.556;9.370;2022-12-18T01:22:25;0.40;;;0.30;;
52540;SDS011;56003;48.556;9.370;2022-12-18T01:24:51;0.40;;;0.20;;
52540;SDS011;56003;48.556;9.370;2022-12-18T01:27:16;0.50;;;0.50;;
52540;SDS011;56003;48.556;9.370;2022-12-18T01:29:42;0.87;;;0.87;;
52540;SDS011;56003;48.556;9.370;2022-12-18T01:32:07;1.37;;;1.27;;
52540;SDS011;56003;48.556;9.370;2022-12-18T01:34:35;0.40;;;0.20;;
52540;SDS011;56003;48.556;9.370;2022-12-18T01:37:02;1.27;;;1.27;;
52540;SDS011;56003;48.556;9.370;2022-12-18T01:39:30;0.40;;;0.27;;
52540;SDS011;56003;48.556;9.370;2022-12-18T01:41:57;0.50;;;0.40;;
52540;SDS011;56003;48.556;9.370;2022-12-18T01:47:18;0.50;;;0.50;;
52540;SDS011;56003;48.556;9.370;2022-12-18T01:49:50;0.40;;;0.27;;
52540;SDS011;56003;48.556;9.370;2022-12-18T01:52:16;0.40;;;0.30;;
52540;SDS011;56003;48.556;9.370;2022-12-18T01:54:43;0.40;;;0.20;;
52540;SDS011;56003;48.556;9.370;2022-12-18T01:57:09;0.40;;;0.20;;
52540;SDS011;56003;48.556;9.370;2022-12-18T01:59:35;0.40;;;0.20;;
52540;SDS011;56003;48.556;9.370;2022-12-18T02:02:02;0.40;;;0.30;;
52540;SDS011;56003;48.556;9.370;2022-12-18T02:04:28;3.20;;;2.97;;
52540;SDS011;56003;48.556;9.370;2022-12-18T02:07:15;0.40;;;0.20;;
52540;SDS011;56003;48.556;9.370;2022-12-18T02:10:00;0.40;;;0.20;;
52540;SDS011;56003;48.556;9.370;2022-12-18T02:12:38;0.40;;;0.20;;
52540;SDS011;56003;48.556;9.370;2022-12-18T02:15:17;0.40;;;0.20;;
52540;SDS011;56003;48.556;9.370;2022-12-18T02:17:54;0.40;;;0.20;;
52540;SDS011;56003;48.556;9.370;2022-12-18T02:23:17;0.50;;;0.50;;
52540;SDS011;56003;48.556;9.370;2022-12-18T02:26:07;0.40;;;0.30;;
52540;SDS011;56003;48.556;9.370;2022-12-18T02:28:51;0.40;;;0.30;;
52540;SDS011;56003;48.556;9.370;2022-12-18T02:31:21;0.40;;;0.20;;
52540;SDS011;56003;48.556;9.370;2022-12-18T02:33:51;0.40;;;0.20;;
52540;SDS011;56003;48.556;9.370;2022-12-18T02:36:22;2.00;;;1.80;;
52540;SDS011;56003;48.556;9.370;2022-12-18T02:38:49;0.40;;;0.20;;
52540;SDS011;56003;48.556;9.370;2022-12-18T02:41:17;2.30;;;2.10;;
52540;SDS011;56003;48.556;9.370;2022-12-18T02:43:47;0.40;;;0.20;;
52540;SDS011;56003;48.556;9.370;2022-12-18T02:51:46;0.40;;;0.20;;
52540;SDS011;56003;48.556;9.370;2022-12-18T02:54:22;0.50;;;0.40;;
52540;SDS011;56003;48.556;9.370;2022-12-18T02:56:50;0.40;;;0.30;;
52540;SDS011;56003;48.556;9.370;2022-12-18T02:59:20;0.57;;;0.57;;
52540;SDS011;56003;48.556;9.370;2022-12-18T03:01:57;0.40;;;0.30;;
52540;SDS011;56003;48.556;9.370;2022-12-18T03:07:05;0.40;;;0.20;;
52540;SDS011;56003;48.556;9.370;2022-12-18T03:09:35;2.20;;;2.10;;
52540;SDS011;56003;48.556;9.370;2022-12-18T03:12:39;0.40;;;0.40;;
52540;SDS011;56003;48.556;9.370;2022-12-18T03:17:55;0.40;;;0.20;;
52540;SDS011;56003;48.556;9.370;2022-12-18T03:20:24;0.57;;;0.57;;
52540;SDS011;56003;48.556;9.370;2022-12-18T03:22:54;0.40;;;0.30;;
52540;SDS011;56003;48.556;9.370;2022-12-18T03:25:26;0.93;;;0.83;;
52540;SDS011;56003;48.556;9.370;2022-12-18T03:27:56;0.67;;;0.67;;
52540;SDS011;56003;48.556;9.370;2022-12-18T03:30:26;1.93;;;1.43;;
52540;SDS011;56003;48.556;9.370;2022-12-18T03:33:02;0.40;;;0.20;;
52540;SDS011;56003;48.556;9.370;2022-12-18T03:35:33;0.40;;;0.30;;
52540;SDS011;56003;48.556;9.370;2022-12-18T03:38:02;0.40;;;0.20;;
52540;SDS011;56003;48.556;9.370;2022-12-18T03:40:39;0.40;;;0.40;;
52540;SDS011;56003;48.556;9.370;2022-12-18T03:43:17;1.07;;;0.97;;
52540;SDS011;56003;48.556;9.370;2022-12-18T03:45:53;1.90;;;1.67;;
52540;SDS011;56003;48.556;9.370;2022-12-18T03:48:27;0.40;;;0.30;;
52540;SDS011;56003;48.556;9.370;2022-12-18T03:50:59;0.70;;;0.60;;
52540;SDS011;56003;48.556;9.370;2022-12-18T03:53:41;0.40;;;0.20;;
52540;SDS011;56003;48.556;9.370;2022-12-18T03:56:15;0.40;;;0.20;;
52540;SDS011;56003;48.556;9.370;2022-12-18T03:58:44;0.40;;;0.20;;
52540;SDS011;56003;48.556;9.370;2022-12-18T04:01:13;0.50;;;0.40;;
52540;SDS011;56003;48.556;9.370;2022-12-18T04:03:41;2.10;;;1.90;;
52540;SDS011;56003;48.556;9.370;2022-12-18T04:06:08;0.70;;;0.70;;
52540;SDS011;56003;48.556;9.370;2022-12-18T04:08:36;0.40;;;0.20;;
52540;SDS011;56003;48.556;9.370;2022-12-18T04:11:01;0.40;;;0.20;;
52540;SDS011;56003;48.556;9.370;2022-12-18T04:13:28;0.40;;;0.20;;
52540;SDS011;56003;48.556;9.370;2022-12-18T04:15:56;0.40;;;0.20;;
52540;SDS011;56003;48.556;9.370;2022-12-18T04:18:22;0.40;;;0.33;;
52540;SDS011;56003;48.556;9.370;2022-12-18T04:20:47;1.07;;;0.87;;
52540;SDS011;56003;48.556;9.370;2022-12-18T04:23:13;0.40;;;0.20;;
52540;SDS011;56003;48.556;9.370;2022-12-18T04:25:38;0.40;;;0.20;;
52540;SDS011;56003;48.556;9.370;2022-12-18T04:28:03;0.40;;;0.20;;
52540;SDS011;56003;48.556;9.370;2022-12-18T04:30:29;2.20;;;1.07;;
52540;SDS011;56003;48.556;9.370;2022-12-18T04:32:54;0.40;;;0.20;;
52540;SDS011;56003;48.556;9.370;2022-12-18T04:35:20;0.40;;;0.20;;
52540;SDS011;56003;48.556;9.370;2022-12-18T04:37:45;0.60;;;0.40;;
52540;SDS011;56003;48.556;9.370;2022-12-18T04:40:11;0.40;;;0.20;;
52540;SDS011;56003;48.556;9.370;2022-12-18T04:42:37;0.40;;;0.30;;
52540;SDS011;56003;48.556;9.370;2022-12-18T04:45:03;0.40;;;0.30;;
52540;SDS011;56003;48.556;9.370;2022-12-18T04:47:30;0.40;;;0.20;;
52540;SDS011;56003;48.556;9.370;2022-12-18T04:49:58;0.40;;;0.33;;
52540;SDS011;56003;48.556;9.370;2022-12-18T04:52:24;0.40;;;0.20;;
52540;SDS011;56003;48.556;9.370;2022-12-18T04:54:49;0.40;;;0.20;;
52540;SDS011;56003;48.556;9.370;2022-12-18T04:57:15;0.40;;;0.20;;
52540;SDS011;56003;48.556;9.370;2022-12-18T04:59:40;0.40;;;0.30;;
52540;SDS011;56003;48.556;9.370;2022-12-18T05:02:06;0.40;;;0.20;;
52540;SDS011;56003;48.556;9.370;2022-12-18T05:04:31;0.40;;;0.20;;
52540;SDS011;56003;48.556;9.370;2022-12-18T05:06:57;0.40;;;0.30;;
52540;SDS011;56003;48.556;9.370;2022-12-18T05:09:22;0.73;;;0.73;;
52540;SDS011;56003;48.556;9.370;2022-12-18T05:11:48;1.03;;;0.90;;
52540;SDS011;56003;48.556;9.370;2022-12-18T05:14:13;0.40;;;0.20;;
52540;SDS011;56003;48.556;9.370;2022-12-18T05:16:40;0.40;;;0.20;;
52540;SDS011;56003;48.556;9.370;2022-12-18T05:19:05;0.40;;;0.20;;
52540;SDS011;56003;48.556;9.370;2022-12-18T05:21:30;1.03;;;1.03;;
52540;SDS011;56003;48.556;9.370;2022-12-18T05:23:56;0.40;;;0.30;;
52540;SDS011;56003;48.556;9.370;2022-12-18T05:26:21;0.40;;;0.40;;
52540;SDS011;56003;48.556;9.370;2022-12-18T05:28:47;0.40;;;0.20;;
52540;SDS011;56003;48.556;9.370;2022-12-18T05:31:12;0.40;;;0.20;;
52540;SDS011;56003;48.556;9.370;2022-12-18T05:33:38;0.40;;;0.40;;
52540;SDS011;56003;48.556;9.370;2022-12-18T05:36:05;0.40;;;0.20;;
52540;SDS011;56003;48.556;9.370;2022-12-18T05:38:33;0.50;;;0.30;;
52540;SDS011;56003;48.556;9.370;2022-12-18T05:41:01;0.40;;;0.30;;
52540;SDS011;56003;48.556;9.370;2022-12-18T05:43:27;0.40;;;0.20;;
52540;SDS011;56003;48.556;9.370;2022-12-18T05:45:55;0.40;;;0.20;;
52540;SDS011;56003;48.556;9.370;2022-12-18T05:48:22;0.70;;;0.60;;
52540;SDS011;56003;48.556;9.370;2022-12-18T05:50:48;0.97;;;0.97;;
52540;SDS011;56003;48.556;9.370;2022-12-18T05:53:16;0.40;;;0.40;;
52540;SDS011;56003;48.556;9.370;2022-12-18T05:55:45;0.50;;;0.43;;
52540;SDS011;56003;48.556;9.370;2022-12-18T05:58:10;0.40;;;0.20;;
52540;SDS011;56003;48.556;9.370;2022-12-18T06:00:37;2.00;;;1.23;;
52540;SDS011;56003;48.556;9.370;2022-12-18T06:03:08;0.40;;;0.20;;
52540;SDS011;56003;48.556;9.370;2022-12-18T06:05:38;0.50;;;0.40;;
52540;SDS011;56003;48.556;9.370;2022-12-18T06:08:05;0.60;;;0.57;;
52540;SDS011;56003;48.556;9.370;2022-12-18T06:10:33;1.13;;;1.13;;
52540;SDS011;56003;48.556;9.370;2022-12-18T06:12:59;0.57;;;0.57;;
52540;SDS011;56003;48.556;9.370;2022-12-18T06:15:25;0.40;;;0.20;;
52540;SDS011;56003;48.556;9.370;2022-12-18T06:17:50;0.40;;;0.20;;
52540;SDS011;56003;48.556;9.370;2022-12-18T06:20:16;3.27;;;1.73;;
52540;SDS011;56003;48.556;9.370;2022-12-18T06:22:41;0.40;;;0.20;;
52540;SDS011;56003;48.556;9.370;2022-12-18T06:25:10;0.40;;;0.20;;
52540;SDS011;56003;48.556;9.370;2022-12-18T06:27:35;0.80;;;0.60;;
52540;SDS011;56003;48.556;9.370;2022-12-18T06:30:04;0.40;;;0.20;;
52540;SDS011;56003;48.556;9.370;2022-12-18T06:32:33;0.77;;;0.77;;
52540;SDS011;56003;48.556;9.370;2022-12-18T06:34:58;1.17;;;0.70;;
52540;SDS011;56003;48.556;9.370;2022-12-18T06:37:24;0.40;;;0.20;;
52540;SDS011;56003;48.556;9.370;2022-12-18T06:39:51;0.40;;;0.20;;
52540;SDS011;56003;48.556;9.370;2022-12-18T06:42:17;0.40;;;0.20;;
52540;SDS011;56003;48.556;9.370;2022-12-18T06:44:42;0.40;;;0.20;;
52540;SDS011;56003;48.556;9.370;2022-12-18T06:47:10;0.40;;;0.33;;
52540;SDS011;56003;48.556;9.370;2022-12-18T06:49:35;0.50;;;0.50;;
52540;SDS011;56003;48.556;9.370;2022-12-18T06:52:01;0.40;;;0.30;;
52540;SDS011;56003;48.556;9.370;2022-12-18T06:54:26;0.90;;;0.90;;
52540;SDS011;56003;48.556;9.370;2022-12-18T06:56:52;0.40;;;0.20;;
52540;SDS011;56003;48.556;9.370;2022-12-18T06:59:17;0.40;;;0.20;;
52540;SDS011;56003;48.556;9.370;2022-12-18T07:01:43;0.40;;;0.20;;
52540;SDS011;56003;48.556;9.370;2022-12-18T07:04:10;1.17;;;1.03;;
52540;SDS011;56003;48.556;9.370;2022-12-18T07:06:36;0.40;;;0.20;;
52540;SDS011;56003;48.556;9.370;2022-12-18T07:09:02;0.40;;;0.20;;
52540;SDS011;56003;48.556;9.370;2022-12-18T07:11:27;6.03;;;1.90;;
52540;SDS011;56003;48.556;9.370;2022-12-18T07:13:57;0.93;;;0.93;;
52540;SDS011;56003;48.556;9.370;2022-12-18T07:16:22;2.73;;;2.53;;
52540;SDS011;56003;48.556;9.370;2022-12-18T07:18:48;0.40;;;0.20;;
52540;SDS011;56003;48.556;9.370;2022-12-18T07:21:17;0.40;;;0.40;;
52540;SDS011;56003;48.556;9.370;2022-12-18T07:23:46;2.00;;;1.80;;
52540;SDS011;56003;48.556;9.370;2022-12-18T07:26:13;0.40;;;0.30;;
52540;SDS011;56003;48.556;9.370;2022-12-18T07:28:39;1.40;;;1.30;;
52540;SDS011;56003;48.556;9.370;2022-12-18T07:31:06;0.40;;;0.30;;
52540;SDS011;56003;48.556;9.370;2022-12-18T07:33:35;0.40;;;0.30;;
52540;SDS011;56003;48.556;9.370;2022-12-18T07:36:01;0.40;;;0.20;;
52540;SDS011;56003;48.556;9.370;2022-12-18T07:38:28;0.53;;;0.53;;
52540;SDS011;56003;48.556;9.370;2022-12-18T07:40:54;0.40;;;0.20;;
52540;SDS011;56003;48.556;9.370;2022-12-18T07:43:19;1.43;;;1.33;;
52540;SDS011;56003;48.556;9.370;2022-12-18T07:45:45;0.40;;;0.30;;
52540;SDS011;56003;48.556;9.370;2022-12-18T07:48:10;0.40;;;0.30;;
52540;SDS011;56003;48.556;9.370;2022-12-18T07:50:36;0.40;;;0.20;;
52540;SDS011;56003;48.556;9.370;2022-12-18T07:53:02;5.70;;;5.20;;
52540;SDS011;56003;48.556;9.370;2022-12-18T07:55:29;0.63;;;0.63;;
52540;SDS011;56003;48.556;9.370;2022-12-18T07:57:56;0.50;;;0.43;;
52540;SDS011;56003;48.556;9.370;2022-12-18T08:00:21;0.40;;;0.20;;
52540;SDS011;56003;48.556;9.370;2022-12-18T08:02:47;0.40;;;0.20;;
52540;SDS011;56003;48.556;9.370;2022-12-18T08:05:13;0.47;;;0.40;;
52540;SDS011;56003;48.556;9.370;2022-12-18T08:07:39;0.50;;;0.40;;
52540;SDS011;56003;48.556;9.370;2022-12-18T08:10:04;0.40;;;0.30;;
52540;SDS011;56003;48.556;9.370;2022-12-18T08:12:31;0.80;;;0.80;;
52540;SDS011;56003;48.556;9.370;2022-12-18T08:14:56;0.40;;;0.20;;
52540;SDS011;56003;48.556;9.370;2022-12-18T08:17:22;0.40;;;0.40;;
52540;SDS011;56003;48.556;9.370;2022-12-18T08:19:47;0.40;;;0.20;;
52540;SDS011;56003;48.556;9.370;2022-12-18T08:22:12;0.40;;;0.30;;
52540;SDS011;56003;48.556;9.370;2022-12-18T08:24:38;3.40;;;1.37;;
52540;SDS011;56003;48.556;9.370;2022-12-18T08:27:03;0.53;;;0.53;;
52540;SDS011;56003;48.556;9.370;2022-12-18T08:29:29;1.13;;;1.03;;
52540;SDS011;56003;48.556;9.370;2022-12-18T08:31:55;2.00;;;1.90;;
52540;SDS011;56003;48.556;9.370;2022-12-18T08:34:23;0.40;;;0.23;;
52540;SDS011;56003;48.556;9.370;2022-12-18T08:36:48;0.40;;;0.20;;
52540;SDS011;56003;48.556;9.370;2022-12-18T08:39:13;0.40;;;0.30;;
52540;SDS011;56003;48.556;9.370;2022-12-18T08:41:39;0.40;;;0.30;;
52540;SDS011;56003;48.556;9.370;2022-12-18T08:44:04;0.40;;;0.37;;
52540;SDS011;56003;48.556;9.370;2022-12-18T08:46:50;2.20;;;2.00;;
52540;SDS011;56003;48.556;9.370;2022-12-18T08:49:18;0.40;;;0.30;;
52540;SDS011;56003;48.556;9.370;2022-12-18T08:51:44;0.40;;;0.20;;
52540;SDS011;56003;48.556;9.370;2022-12-18T08:54:12;2.50;;;2.40;;
52540;SDS011;56003;48.556;9.370;2022-12-18T08:56:38;1.17;;;1.07;;
52540;SDS011;56003;48.556;9.370;2022-12-18T08:59:04;0.87;;;0.73;;
52540;SDS011;56003;48.556;9.370;2022-12-18T09:01:36;0.40;;;0.20;;
52540;SDS011;56003;48.556;9.370;2022-12-18T09:04:25;2.00;;;1.17;;
52540;SDS011;56003;48.556;9.370;2022-12-18T09:26:28;0.50;;;0.40;;
52540;SDS011;56003;48.556;9.370;2022-12-18T09:28:54;4.87;;;1.90;;
52540;SDS011;56003;48.556;9.370;2022-12-18T09:31:25;0.57;;;0.53;;
52540;SDS011;56003;48.556;9.370;2022-12-18T09:36:48;1.90;;;1.80;;
52540;SDS011;56003;48.556;9.370;2022-12-18T09:39:44;0.90;;;0.80;;
52540;SDS011;56003;48.556;9.370;2022-12-18T09:45:01;0.83;;;0.83;;
52540;SDS011;56003;48.556;9.370;2022-12-18T09:47:37;3.97;;;2.33;;
52540;SDS011;56003;48.556;9.370;2022-12-18T09:50:16;6.70;;;3.77;;
52540;SDS011;56003;48.556;9.370;2022-12-18T09:56:42;0.83;;;0.77;;
52540;SDS011;56003;48.556;9.370;2022-12-18T09:59:34;8.93;;;5.07;;
52540;SDS011;56003;48.556;9.370;2022-12-18T10:02:18;1.67;;;1.17;;
52540;SDS011;56003;48.556;9.370;2022-12-18T10:04:59;2.33;;;2.13;;
52540;SDS011;56003;48.556;9.370;2022-12-18T10:19:52;1.23;;;1.13;;
52540;SDS011;56003;48.556;9.370;2022-12-18T10:25:38;5.83;;;2.13;;
52540;SDS011;56003;48.556;9.370;2022-12-18T10:28:49;4.10;;;3.20;;
52540;SDS011;56003;48.556;9.370;2022-12-18T10:34:12;5.97;;;3.00;;
52540;SDS011;56003;48.556;9.370;2022-12-18T10:37:00;5.37;;;3.47;;
52540;SDS011;56003;48.556;9.370;2022-12-18T10:40:04;6.67;;;4.67;;
52540;SDS011;56003;48.556;9.370;2022-12-18T10:43:04;6.03;;;4.23;;
52540;SDS011;56003;48.556;9.370;2022-12-18T10:51:48;4.87;;;2.17;;
52540;SDS011;56003;48.556;9.370;2022-12-18T10:54:26;2.37;;;2.17;;
52540;SDS011;56003;48.556;9.370;2022-12-18T10:57:17;2.57;;;2.37;;
52540;SDS011;56003;48.556;9.370;2022-12-18T11:02:55;7.20;;;3.97;;
52540;SDS011;56003;48.556;9.370;2022-12-18T11:05:48;2.07;;;1.87;;
52540;SDS011;56003;48.556;9.370;2022-12-18T11:08:30;4.60;;;2.57;;
52540;SDS011;56003;48.556;9.370;2022-12-18T11:10:55;7.00;;;3.70;;
52540;SDS011;56003;48.556;9.370;2022-12-18T11:13:42;5.63;;;3.63;;
52540;SDS011;56003;48.556;9.370;2022-12-18T11:16:43;5.47;;;4.73;;
52540;SDS011;56003;48.556;9.370;2022-12-18T11:19:35;6.10;;;3.90;;
52540;SDS011;56003;48.556;9.370;2022-12-18T11:22:20;10.57;;;4.73;;
52540;SDS011;56003;48.556;9.370;2022-12-18T11:25:04;8.40;;;7.53;;
52540;SDS011;56003;48.556;9.370;2022-12-18T11:27:32;7.07;;;5.30;;
52540;SDS011;56003;48.556;9.370;2022-12-18T11:31:08;5.60;;;4.00;;
52540;SDS011;56003;48.556;9.370;2022-12-18T11:36:15;7.00;;;4.10;;
52540;SDS011;56003;48.556;9.370;2022-12-18T11:38:42;7.17;;;4.93;;
52540;SDS011;56003;48.556;9.370;2022-12-18T11:44:29;6.77;;;2.97;;
52540;SDS011;56003;48.556;9.370;2022-12-18T11:47:15;8.70;;;5.20;;
52540;SDS011;56003;48.556;9.370;2022-12-18T11:49:50;7.23;;;4.00;;
52540;SDS011;56003;48.556;9.370;2022-12-18T11:54:52;7.37;;;2.97;;
52540;SDS011;56003;48.556;9.370;2022-12-18T11:57:38;9.40;;;4.87;;
52540;SDS011;56003;48.556;9.370;2022-12-18T12:00:16;7.57;;;4.23;;
52540;SDS011;56003;48.556;9.370;2022-12-18T12:08:34;9.13;;;5.60;;
52540;SDS011;56003;48.556;9.370;2022-12-18T12:11:06;7.30;;;5.50;;
52540;SDS011;56003;48.556;9.370;2022-12-18T12:16:15;6.67;;;5.43;;
52540;SDS011;56003;48.556;9.370;2022-12-18T12:18:52;27.93;;;10.73;;
52540;SDS011;56003;48.556;9.370;2022-12-18T12:21:42;6.67;;;4.50;;
52540;SDS011;56003;48.556;9.370;2022-12-18T12:24:33;6.17;;;5.50;;
52540;SDS011;56003;48.556;9.370;2022-12-18T12:27:20;6.80;;;5.70;;
52540;SDS011;56003;48.556;9.370;2022-12-18T12:30:16;11.63;;;7.77;;
52540;SDS011;56003;48.556;9.370;2022-12-18T12:35:42;7.40;;;5.13;;
52540;SDS011;56003;48.556;9.370;2022-12-18T12:40:49;4.43;;;3.80;;
52540;SDS011;56003;48.556;9.370;2022-12-18T12:45:47;4.63;;;4.00;;
52540;SDS011;56003;48.556;9.370;2022-12-18T12:51:11;5.30;;;3.00;;
52540;SDS011;56003;48.556;9.370;2022-12-18T12:53:38;4.17;;;3.40;;
52540;SDS011;56003;48.556;9.370;2022-12-18T12:56:06;3.70;;;3.07;;
52540;SDS011;56003;48.556;9.370;2022-12-18T12:58:37;2.20;;;2.10;;
52540;SDS011;56003;48.556;9.370;2022-12-18T13:09:07;2.93;;;2.67;;
52540;SDS011;56003;48.556;9.370;2022-12-18T13:11:36;5.10;;;3.13;;
52540;SDS011;56003;48.556;9.370;2022-12-18T13:14:23;5.37;;;2.77;;
52540;SDS011;56003;48.556;9.370;2022-12-18T13:16:51;3.10;;;2.83;;
52540;SDS011;56003;48.556;9.370;2022-12-18T13:19:37;6.10;;;4.37;;
52540;SDS011;56003;48.556;9.370;2022-12-18T13:22:02;1.83;;;1.50;;
52540;SDS011;56003;48.556;9.370;2022-12-18T13:24:27;2.40;;;2.20;;
52540;SDS011;56003;48.556;9.370;2022-12-18T13:26:56;2.23;;;2.03;;
52540;SDS011;56003;48.556;9.370;2022-12-18T13:29:54;0.60;;;0.57;;
52540;SDS011;56003;48.556;9.370;2022-12-18T13:32:23;1.37;;;1.07;;
52540;SDS011;56003;48.556;9.370;2022-12-18T13:35:13;0.90;;;0.87;;
52540;SDS011;56003;48.556;9.370;2022-12-18T13:37:52;1.23;;;1.23;;
52540;SDS011;56003;48.556;9.370;2022-12-18T13:40:52;3.80;;;3.00;;
52540;SDS011;56003;48.556;9.370;2022-12-18T13:48:16;1.03;;;1.00;;
52540;SDS011;56003;48.556;9.370;2022-12-18T13:50:48;0.80;;;0.80;;
52540;SDS011;56003;48.556;9.370;2022-12-18T13:53:20;3.63;;;3.43;;
52540;SDS011;56003;48.556;9.370;2022-12-18T13:55:49;2.40;;;2.30;;
52540;SDS011;56003;48.556;9.370;2022-12-18T13:58:15;3.90;;;2.47;;
52540;SDS011;56003;48.556;9.370;2022-12-18T14:00:42;2.80;;;1.07;;
52540;SDS011;56003;48.556;9.370;2022-12-18T14:03:18;0.73;;;0.73;;
52540;SDS011;56003;48.556;9.370;2022-12-18T14:05:46;4.60;;;2.53;;
52540;SDS011;56003;48.556;9.370;2022-12-18T14:08:19;5.40;;;1.10;;
52540;SDS011;56003;48.556;9.370;2022-12-18T14:10:46;2.67;;;2.47;;
52540;SDS011;56003;48.556;9.370;2022-12-18T14:13:21;4.23;;;0.80;;
52540;SDS011;56003;48.556;9.370;2022-12-18T14:15:56;1.23;;;1.13;;
52540;SDS011;56003;48.556;9.370;2022-12-18T14:18:42;5.70;;;2.57;;
52540;SDS011;56003;48.556;9.370;2022-12-18T14:24:04;0.97;;;0.97;;
52540;SDS011;56003;48.556;9.370;2022-12-18T14:26:32;1.00;;;0.93;;
52540;SDS011;56003;48.556;9.370;2022-12-18T14:28:59;0.80;;;0.80;;
52540;SDS011;56003;48.556;9.370;2022-12-18T14:31:46;1.13;;;1.13;;
52540;SDS011;56003;48.556;9.370;2022-12-18T14:34:44;0.40;;;0.20;;
52540;SDS011;56003;48.556;9.370;2022-12-18T14:37:18;0.40;;;0.30;;
52540;SDS011;56003;48.556;9.370;2022-12-18T14:39:58;1.83;;;1.70;;
52540;SDS011;56003;48.556;9.370;2022-12-18T14:42:28;0.50;;;0.50;;
52540;SDS011;56003;48.556;9.370;2022-12-18T14:48:00;1.07;;;1.07;;
52540;SDS011;56003;48.556;9.370;2022-12-18T14:50:34;0.40;;;0.30;;
52540;SDS011;56003;48.556;9.370;2022-12-18T14:53:00;1.43;;;1.43;;
52540;SDS011;56003;48.556;9.370;2022-12-18T14:55:26;7.90;;;1.17;;
52540;SDS011;56003;48.556;9.370;2022-12-18T14:57:52;0.73;;;0.73;;
52540;SDS011;56003;48.556;9.370;2022-12-18T15:00:21;3.70;;;1.60;;
52540;SDS011;56003;48.556;9.370;2022-12-18T15:02:50;2.27;;;2.13;;
52540;SDS011;56003;48.556;9.370;2022-12-18T15:05:19;1.73;;;1.07;;
52540;SDS011;56003;48.556;9.370;2022-12-18T15:07:51;0.40;;;0.30;;
52540;SDS011;56003;48.556;9.370;2022-12-18T15:12:48;0.70;;;0.70;;
52540;SDS011;56003;48.556;9.370;2022-12-18T15:18:04;0.40;;;0.30;;
52540;SDS011;56003;48.556;9.370;2022-12-18T15:20:32;1.10;;;1.00;;
52540;SDS011;56003;48.556;9.370;2022-12-18T15:23:23;1.13;;;1.03;;
52540;SDS011;56003;48.556;9.370;2022-12-18T15:25:55;1.90;;;1.80;;
52540;SDS011;56003;48.556;9.370;2022-12-18T15:28:32;2.20;;;2.00;;
52540;SDS011;56003;48.556;9.370;2022-12-18T15:33:40;1.90;;;0.77;;
52540;SDS011;56003;48.556;9.370;2022-12-18T15:36:11;1.57;;;1.20;;
52540;SDS011;56003;48.556;9.370;2022-12-18T15:38:38;0.93;;;0.93;;
52540;SDS011;56003;48.556;9.370;2022-12-18T15:41:11;1.30;;;1.20;;
52540;SDS011;56003;48.556;9.370;2022-12-18T15:43:38;0.70;;;0.70;;
52540;SDS011;56003;48.556;9.370;2022-12-18T15:46:05;0.83;;;0.83;;
52540;SDS011;56003;48.556;9.370;2022-12-18T15:48:40;0.83;;;0.77;;
52540;SDS011;56003;48.556;9.370;2022-12-18T15:51:20;1.97;;;0.73;;
52540;SDS011;56003;48.556;9.370;2022-12-18T15:53:58;0.40;;;0.20;;
52540;SDS011;56003;48.556;9.370;2022-12-18T15:56:26;0.70;;;0.47;;
52540;SDS011;56003;48.556;9.370;2022-12-18T15:59:17;0.70;;;0.67;;
52540;SDS011;56003;48.556;9.370;2022-12-18T16:01:46;3.13;;;2.93;;
52540;SDS011;56003;48.556;9.370;2022-12-18T16:04:19;1.40;;;1.20;;
52540;SDS011;56003;48.556;9.370;2022-12-18T16:06:46;2.87;;;2.67;;
52540;SDS011;56003;48.556;9.370;2022-12-18T16:09:16;0.50;;;0.50;;
52540;SDS011;56003;48.556;9.370;2022-12-18T16:11:42;0.40;;;0.40;;
52540;SDS011;56003;48.556;9.370;2022-12-18T16:14:20;1.47;;;1.23;;
52540;SDS011;56003;48.556;9.370;2022-12-18T16:16:54;1.00;;;0.83;;
52540;SDS011;56003;48.556;9.370;2022-12-18T16:19:22;0.40;;;0.30;;
52540;SDS011;56003;48.556;9.370;2022-12-18T16:21:51;0.87;;;0.73;;
52540;SDS011;56003;48.556;9.370;2022-12-18T16:24:22;0.80;;;0.80;;
52540;SDS011;56003;48.556;9.370;2022-12-18T16:26:49;0.40;;;0.40;;
52540;SDS011;56003;48.556;9.370;2022-12-18T16:29:19;0.40;;;0.40;;
52540;SDS011;56003;48.556;9.370;2022-12-18T16:31:49;8.60;;;1.90;;
52540;SDS011;56003;48.556;9.370;2022-12-18T16:34:20;0.50;;;0.40;;
52540;SDS011;56003;48.556;9.370;2022-12-18T16:37:00;0.40;;;0.20;;
52540;SDS011;56003;48.556;9.370;2022-12-18T16:39:27;1.37;;;1.17;;
52540;SDS011;56003;48.556;9.370;2022-12-18T16:41:53;0.40;;;0.23;;
52540;SDS011;56003;48.556;9.370;2022-12-18T16:44:21;0.80;;;0.70;;
52540;SDS011;56003;48.556;9.370;2022-12-18T16:46:46;0.63;;;0.60;;
52540;SDS011;56003;48.556;9.370;2022-12-18T16:49:12;0.40;;;0.20;;
52540;SDS011;56003;48.556;9.370;2022-12-18T16:51:38;0.40;;;0.20;;
52540;SDS011;56003;48.556;9.370;2022-12-18T16:54:04;3.17;;;3.07;;
52540;SDS011;56003;48.556;9.370;2022-12-18T16:56:30;1.87;;;1.70;;
52540;SDS011;56003;48.556;9.370;2022-12-18T16:58:57;1.67;;;1.57;;
52540;SDS011;56003;48.556;9.370;2022-12-18T17:01:25;0.63;;;0.63;;
52540;SDS011;56003;48.556;9.370;2022-12-18T17:03:54;0.40;;;0.20;;
52540;SDS011;56003;48.556;9.370;2022-12-18T17:06:26;4.50;;;1.03;;
52540;SDS011;56003;48.556;9.370;2022-12-18T17:09:03;0.97;;;0.80;;
52540;SDS011;56003;48.556;9.370;2022-12-18T17:11:33;1.23;;;1.13;;
52540;SDS011;56003;48.556;9.370;2022-12-18T17:14:04;2.80;;;2.70;;
52540;SDS011;56003;48.556;9.370;2022-12-18T17:16:34;1.17;;;0.97;;
52540;SDS011;56003;48.556;9.370;2022-12-18T17:18:59;1.23;;;1.23;;